createdAt,value
2024-04-24T00:00:25.031Z,8.71
2024-04-24T00:02:53.988Z,8.61
2024-04-24T00:05:22.595Z,8.92
2024-04-24T00:07:49.474Z,9.13
2024-04-24T00:10:16.380Z,9.10
2024-04-24T00:12:44.579Z,9.06
2024-04-24T00:15:11.397Z,9.42
2024-04-24T00:17:38.402Z,9.46
2024-04-24T00:20:05.942Z,9.39
2024-04-24T00:22:32.810Z,9.29
2024-04-24T00:24:59.672Z,9.41
2024-04-24T00:27:27.871Z,9.31
2024-04-24T00:29:54.747Z,9.19
2024-04-24T00:32:21.563Z,8.89
2024-04-24T00:34:48.455Z,8.64
2024-04-24T00:37:15.326Z,8.85
2024-04-24T00:39:42.112Z,8.82
2024-04-24T00:42:21.025Z,8.41
2024-04-24T00:44:48.055Z,8.38
2024-04-24T00:47:17.356Z,8.16
2024-04-24T00:49:46.675Z,8.50
2024-04-24T00:52:14.014Z,8.46
2024-04-24T00:54:40.918Z,8.35
2024-04-24T00:57:07.934Z,8.03
2024-04-24T00:59:35.867Z,8.03
2024-04-24T01:02:03.467Z,8.16
2024-04-24T01:04:30.302Z,8.15
2024-04-24T01:06:57.616Z,8.14
2024-04-24T01:09:24.451Z,8.28
2024-04-24T01:11:51.420Z,8.22
2024-04-24T01:14:18.526Z,7.89
2024-04-24T01:16:46.597Z,7.97
2024-04-24T01:19:38.532Z,7.88
2024-04-24T01:22:33.247Z,7.69
2024-04-24T01:25:25.030Z,7.69
2024-04-24T01:27:52.421Z,7.76
2024-04-24T01:30:19.334Z,7.80
2024-04-24T01:32:46.370Z,7.85
2024-04-24T01:35:13.298Z,7.80
2024-04-24T01:37:40.193Z,7.79
2024-04-24T01:40:07.815Z,7.84
2024-04-24T01:42:34.589Z,7.50
2024-04-24T01:45:01.477Z,7.55
2024-04-24T01:47:31.458Z,7.41
2024-04-24T01:49:58.374Z,7.47
2024-04-24T01:52:25.282Z,7.61
2024-04-24T01:54:52.126Z,7.68
2024-04-24T01:57:19.003Z,7.65
2024-04-24T01:59:45.911Z,7.56
2024-04-24T02:02:12.834Z,7.51
2024-04-24T02:04:39.686Z,7.56
2024-04-24T02:07:06.497Z,7.70
2024-04-24T02:09:33.320Z,7.55
2024-04-24T02:12:07.093Z,7.48
2024-04-24T02:14:41.531Z,7.64
2024-04-24T02:17:08.594Z,7.56
2024-04-24T02:19:35.370Z,7.70
2024-04-24T02:22:02.248Z,7.85
2024-04-24T02:24:47.680Z,8.07
2024-04-24T02:27:14.433Z,7.55
2024-04-24T02:29:50.983Z,7.64
2024-04-24T02:32:21.910Z,7.55
2024-04-24T02:34:49.095Z,7.81
2024-04-24T02:37:15.963Z,7.76
2024-04-24T02:39:42.924Z,7.65
2024-04-24T02:42:09.785Z,7.73
2024-04-24T02:44:37.675Z,7.60
2024-04-24T02:47:04.652Z,7.65
2024-04-24T02:49:31.588Z,7.59
2024-04-24T02:51:58.522Z,7.27
2024-04-24T02:54:25.632Z,7.11
2024-04-24T02:56:53.600Z,7.41
2024-04-24T02:59:21.200Z,7.39
2024-04-24T03:01:48.201Z,7.52
2024-04-24T03:04:15.210Z,7.57
2024-04-24T03:06:43.597Z,7.55
2024-04-24T03:09:11.345Z,7.42
2024-04-24T03:11:42.135Z,7.51
2024-04-24T03:14:09.378Z,7.14
2024-04-24T03:16:36.635Z,7.13
2024-04-24T03:19:03.640Z,7.21
2024-04-24T03:21:30.711Z,6.88
2024-04-24T03:23:57.611Z,6.93
2024-04-24T03:26:24.460Z,7.20
2024-04-24T03:28:51.462Z,7.42
2024-04-24T03:31:18.396Z,7.32
2024-04-24T03:33:45.365Z,7.45
2024-04-24T03:36:13.432Z,7.70
2024-04-24T03:38:42.175Z,7.69
2024-04-24T03:41:10.683Z,7.79
2024-04-24T03:43:39.163Z,7.62
2024-04-24T03:46:06.037Z,7.59
2024-04-24T03:48:32.830Z,7.79
2024-04-24T03:50:59.757Z,7.98
2024-04-24T03:53:26.685Z,7.32
2024-04-24T03:55:53.662Z,7.23
2024-04-24T03:58:20.659Z,7.13
2024-04-24T04:00:47.564Z,7.36
2024-04-24T04:03:14.411Z,7.50
2024-04-24T04:05:41.598Z,7.06
2024-04-24T04:08:08.473Z,7.20
2024-04-24T04:10:35.383Z,7.33
2024-04-24T04:13:03.055Z,7.40
2024-04-24T04:15:29.918Z,7.67
2024-04-24T04:17:57.349Z,7.65
2024-04-24T04:20:24.462Z,7.52
2024-04-24T04:22:51.478Z,7.64
2024-04-24T04:25:18.302Z,7.84
2024-04-24T04:27:45.173Z,7.94
2024-04-24T04:30:12.304Z,7.98
2024-04-24T04:32:39.346Z,7.55
2024-04-24T04:35:06.440Z,7.69
2024-04-24T04:37:35.209Z,7.64
2024-04-24T04:40:05.017Z,7.54
2024-04-24T04:42:31.980Z,7.71
2024-04-24T04:44:59.117Z,7.94
2024-04-24T04:47:26.266Z,8.15
2024-04-24T04:49:53.294Z,7.90
2024-04-24T04:52:20.196Z,7.74
2024-04-24T04:54:47.009Z,7.66
2024-04-24T04:57:13.879Z,7.66
2024-04-24T04:59:40.712Z,7.67
2024-04-24T05:02:07.650Z,7.61
2024-04-24T05:04:34.647Z,7.81
2024-04-24T05:07:01.554Z,7.71
2024-04-24T05:09:30.396Z,7.47
2024-04-24T05:11:57.340Z,7.37
2024-04-24T05:14:24.246Z,7.33
2024-04-24T05:16:51.323Z,7.01
2024-04-24T05:19:18.231Z,7.24
2024-04-24T05:21:45.115Z,7.49
2024-04-24T05:24:12.340Z,7.20
2024-04-24T05:26:58.059Z,7.14
2024-04-24T05:29:24.927Z,7.00
2024-04-24T05:31:52.424Z,6.99
2024-04-24T05:34:19.248Z,6.48
2024-04-24T05:36:46.271Z,6.76
2024-04-24T05:39:13.122Z,7.22
2024-04-24T05:41:39.981Z,7.41
2024-04-24T05:44:06.933Z,6.87
2024-04-24T05:46:33.770Z,6.79
2024-04-24T05:49:00.731Z,6.89
2024-04-24T05:51:27.799Z,6.60
2024-04-24T05:53:54.692Z,6.62
2024-04-24T05:56:21.658Z,6.71
2024-04-24T05:58:48.708Z,6.80
2024-04-24T06:01:15.554Z,6.61
2024-04-24T06:03:42.438Z,6.59
2024-04-24T06:06:09.277Z,6.44
2024-04-24T06:08:36.063Z,6.64
2024-04-24T06:11:03.090Z,6.17
2024-04-24T06:13:29.984Z,6.30
2024-04-24T06:15:56.770Z,6.59
2024-04-24T06:18:23.749Z,6.68
2024-04-24T06:20:50.695Z,6.88
2024-04-24T06:23:17.677Z,7.01
2024-04-24T06:25:47.066Z,6.87
2024-04-24T06:28:13.982Z,6.55
2024-04-24T06:30:42.712Z,6.92
2024-04-24T06:33:09.730Z,7.12
2024-04-24T06:35:36.809Z,7.08
2024-04-24T06:38:03.957Z,6.52
2024-04-24T06:40:30.805Z,7.07
2024-04-24T06:42:57.701Z,6.96
2024-04-24T06:45:24.495Z,6.78
2024-04-24T06:47:51.376Z,6.67
2024-04-24T06:50:18.406Z,7.16
2024-04-24T06:52:45.234Z,7.05
2024-04-24T06:55:12.129Z,6.95
2024-04-24T06:57:39.009Z,7.03
2024-04-24T07:00:06.414Z,6.56
2024-04-24T07:02:33.351Z,6.77
2024-04-24T07:05:00.171Z,6.58
2024-04-24T07:07:27.019Z,6.88
2024-04-24T07:09:53.867Z,6.62
2024-04-24T07:12:20.704Z,6.95
2024-04-24T07:14:47.592Z,6.93
2024-04-24T07:17:14.502Z,7.03
2024-04-24T07:19:41.415Z,6.63
2024-04-24T07:22:08.280Z,6.88
2024-04-24T07:24:35.215Z,6.95
2024-04-24T07:27:02.200Z,7.17
2024-04-24T07:29:29.172Z,7.31
2024-04-24T07:31:56.108Z,7.50
2024-04-24T07:34:22.967Z,7.35
2024-04-24T07:36:49.778Z,7.17
2024-04-24T07:39:16.593Z,7.28
2024-04-24T07:41:44.009Z,7.53
2024-04-24T07:44:10.984Z,7.38
2024-04-24T07:46:37.909Z,7.39
2024-04-24T07:49:04.854Z,7.72
2024-04-24T07:51:31.733Z,7.91
2024-04-24T07:53:58.501Z,8.07
2024-04-24T07:56:25.642Z,8.62
2024-04-24T07:58:52.636Z,7.98
2024-04-24T08:01:22.488Z,7.63
2024-04-24T08:03:49.654Z,8.19
2024-04-24T08:06:16.664Z,7.79
2024-04-24T08:08:43.589Z,7.65
2024-04-24T08:11:10.684Z,7.56
2024-04-24T08:13:37.606Z,8.19
2024-04-24T08:16:04.963Z,8.40
2024-04-24T08:18:31.781Z,8.80
2024-04-24T08:20:58.531Z,9.35
2024-04-24T08:23:27.048Z,9.40
2024-04-24T08:25:55.461Z,9.35
2024-04-24T08:28:32.735Z,9.10
2024-04-24T08:31:05.724Z,9.10
2024-04-24T08:33:33.720Z,9.04
2024-04-24T08:36:05.026Z,8.85
2024-04-24T08:38:32.404Z,8.84
2024-04-24T08:41:07.487Z,8.61
2024-04-24T08:43:39.197Z,8.52
2024-04-24T08:46:07.922Z,8.91
2024-04-24T08:48:36.117Z,8.89
2024-04-24T08:51:03.618Z,9.04
2024-04-24T08:53:32.758Z,9.45
2024-04-24T08:56:01.371Z,8.76
2024-04-24T08:58:30.925Z,9.10
2024-04-24T09:01:05.348Z,9.41
2024-04-24T09:03:58.510Z,9.75
2024-04-24T09:06:25.803Z,9.48
2024-04-24T09:08:56.103Z,9.95
2024-04-24T09:11:23.514Z,9.13
2024-04-24T09:13:50.724Z,9.05
2024-04-24T09:16:20.293Z,9.47
2024-04-24T09:19:03.824Z,9.49
2024-04-24T09:21:32.349Z,9.30
2024-04-24T09:23:59.547Z,9.20
2024-04-24T09:26:27.194Z,9.20
2024-04-24T09:28:54.249Z,9.08
2024-04-24T09:31:23.523Z,8.96
2024-04-24T09:33:51.390Z,8.65
2024-04-24T09:36:18.358Z,8.94
2024-04-24T09:38:46.359Z,8.81
2024-04-24T09:41:13.575Z,8.77
2024-04-24T09:43:40.636Z,9.06
2024-04-24T09:46:07.530Z,9.44
2024-04-24T09:48:35.261Z,9.64
2024-04-24T09:51:02.151Z,9.71
2024-04-24T09:53:29.460Z,8.81
2024-04-24T09:56:03.116Z,8.96
2024-04-24T09:58:34.940Z,9.08
2024-04-24T10:01:08.218Z,9.43
2024-04-24T10:03:36.677Z,9.46
2024-04-24T10:06:06.496Z,9.31
2024-04-24T10:08:34.687Z,9.08
2024-04-24T10:11:08.676Z,8.87
2024-04-24T10:13:39.176Z,8.90
2024-04-24T10:16:06.230Z,8.23
2024-04-24T10:18:34.914Z,8.23
2024-04-24T10:21:04.471Z,7.99
2024-04-24T10:23:32.014Z,8.08
2024-04-24T10:26:00.038Z,7.90
2024-04-24T10:28:28.518Z,7.94
2024-04-24T10:30:57.750Z,7.98
2024-04-24T10:33:26.080Z,8.16
2024-04-24T10:35:53.428Z,8.58
2024-04-24T10:38:20.321Z,8.13
2024-04-24T10:40:50.443Z,8.45
2024-04-24T10:43:17.778Z,7.87
2024-04-24T10:45:45.208Z,7.48
2024-04-24T10:48:13.742Z,7.58
2024-04-24T10:50:41.927Z,7.80
2024-04-24T10:53:13.016Z,8.17
2024-04-24T10:55:51.909Z,8.42
2024-04-24T10:58:22.132Z,8.75
2024-04-24T11:00:48.997Z,8.91
2024-04-24T11:03:16.265Z,8.54
2024-04-24T11:05:43.655Z,8.77
2024-04-24T11:08:20.312Z,8.91
2024-04-24T11:10:53.994Z,8.99
2024-04-24T11:13:20.987Z,9.45
2024-04-24T11:15:58.162Z,9.14
2024-04-24T11:18:29.530Z,9.62
2024-04-24T11:20:57.361Z,9.63
2024-04-24T11:23:24.359Z,9.80
2024-04-24T11:25:57.872Z,9.32
2024-04-24T11:28:27.218Z,9.39
2024-04-24T11:30:54.930Z,9.45
2024-04-24T11:33:23.528Z,9.38
2024-04-24T11:35:51.639Z,8.68
2024-04-24T11:38:18.705Z,8.62
2024-04-24T11:40:45.636Z,8.91
2024-04-24T11:43:12.423Z,9.16
2024-04-24T11:45:39.290Z,9.18
2024-04-24T11:48:07.748Z,9.13
2024-04-24T11:50:35.229Z,8.99
2024-04-24T11:53:03.830Z,9.52
2024-04-24T11:55:35.083Z,10.03
2024-04-24T11:58:09.627Z,10.12
2024-04-24T12:00:40.902Z,10.09
2024-04-24T12:03:09.143Z,9.92
2024-04-24T12:05:36.351Z,9.68
2024-04-24T12:08:03.530Z,9.83
2024-04-24T12:10:30.599Z,9.51
2024-04-24T12:12:57.421Z,9.47
2024-04-24T12:15:24.325Z,9.49
2024-04-24T12:17:51.167Z,9.46
2024-04-24T12:20:18.146Z,9.62
2024-04-24T12:22:45.006Z,9.56
2024-04-24T12:25:11.846Z,9.48
2024-04-24T12:27:39.415Z,9.94
2024-04-24T12:30:07.013Z,9.27
2024-04-24T12:32:34.200Z,9.91
2024-04-24T12:35:01.264Z,10.14
2024-04-24T12:37:33.339Z,10.73
2024-04-24T12:40:00.291Z,11.14
2024-04-24T12:42:27.222Z,11.21
2024-04-24T12:44:54.109Z,10.98
2024-04-24T12:47:21.494Z,10.59
2024-04-24T12:49:48.740Z,10.04
2024-04-24T12:52:15.608Z,10.16
2024-04-24T12:54:42.550Z,10.14
2024-04-24T12:57:09.410Z,9.74
2024-04-24T12:59:36.369Z,9.46
2024-04-24T13:02:03.389Z,9.28
2024-04-24T13:04:30.420Z,8.96
2024-04-24T13:06:57.702Z,8.65
2024-04-24T13:09:24.908Z,9.15
2024-04-24T13:11:52.127Z,9.68
2024-04-24T13:14:19.052Z,10.08
2024-04-24T13:16:46.669Z,9.72
2024-04-24T13:19:13.734Z,9.67
2024-04-24T13:21:40.780Z,9.26
2024-04-24T13:24:08.929Z,9.61
2024-04-24T13:26:36.187Z,10.04
2024-04-24T13:29:03.263Z,10.10
2024-04-24T13:31:30.158Z,9.92
2024-04-24T13:33:57.156Z,10.48
2024-04-24T13:36:24.136Z,11.43
2024-04-24T13:38:53.559Z,11.50
2024-04-24T13:41:21.660Z,10.76
2024-04-24T13:43:55.667Z,10.33
2024-04-24T13:46:22.779Z,10.35
2024-04-24T13:48:49.895Z,10.12
2024-04-24T13:51:16.858Z,10.33
2024-04-24T13:53:43.819Z,10.54
2024-04-24T13:56:10.774Z,10.48
2024-04-24T13:58:38.319Z,10.29
2024-04-24T14:01:05.749Z,10.16
2024-04-24T14:03:32.745Z,10.25
2024-04-24T14:06:01.205Z,10.04
2024-04-24T14:08:28.350Z,9.91
2024-04-24T14:10:55.559Z,10.74
2024-04-24T14:13:22.557Z,11.54
2024-04-24T14:15:49.654Z,12.29
2024-04-24T14:18:18.099Z,12.85
2024-04-24T14:20:46.106Z,12.98
2024-04-24T14:23:15.291Z,12.34
2024-04-24T14:25:42.313Z,11.66
2024-04-24T14:28:09.209Z,12.52
2024-04-24T14:30:36.134Z,13.01
2024-04-24T14:33:03.165Z,13.25
2024-04-24T14:35:30.485Z,12.14
2024-04-24T14:37:57.363Z,12.21
2024-04-24T14:40:27.448Z,11.91
2024-04-24T14:42:54.386Z,11.79
2024-04-24T14:45:21.316Z,11.30
2024-04-24T14:47:48.499Z,10.86
2024-04-24T14:50:15.608Z,10.45
2024-04-24T14:52:42.542Z,10.09
2024-04-24T14:55:10.536Z,10.09
2024-04-24T14:57:37.534Z,10.06
2024-04-24T15:00:05.072Z,9.92
2024-04-24T15:02:32.185Z,9.48
2024-04-24T15:05:01.980Z,9.92
2024-04-24T15:07:31.019Z,10.31
2024-04-24T15:09:57.990Z,10.43
2024-04-24T15:12:25.008Z,10.18
2024-04-24T15:14:52.171Z,10.22
2024-04-24T15:17:19.068Z,10.30
2024-04-24T15:19:46.028Z,10.48
2024-04-24T15:22:12.818Z,10.51
2024-04-24T15:24:39.714Z,11.05
2024-04-24T15:27:06.678Z,11.22
2024-04-24T15:29:33.679Z,10.88
2024-04-24T15:32:00.683Z,10.92
2024-04-24T15:34:27.606Z,10.77
2024-04-24T15:36:54.483Z,10.54
2024-04-24T15:39:21.379Z,10.84
2024-04-24T15:41:50.654Z,10.89
2024-04-24T15:44:17.622Z,10.94
2024-04-24T15:46:44.452Z,11.20
2024-04-24T15:49:11.389Z,10.92
2024-04-24T15:51:40.345Z,10.56
2024-04-24T15:54:08.570Z,10.61
2024-04-24T15:56:35.749Z,10.54
2024-04-24T15:59:02.720Z,10.62
2024-04-24T16:01:29.597Z,10.78
2024-04-24T16:03:56.651Z,10.37
2024-04-24T16:06:23.741Z,10.54
2024-04-24T16:08:50.516Z,10.61
2024-04-24T16:11:17.401Z,10.89
2024-04-24T16:13:44.318Z,10.80
2024-04-24T16:16:11.316Z,10.81
2024-04-24T16:18:45.558Z,10.44
2024-04-24T16:21:16.081Z,10.57
2024-04-24T16:23:43.144Z,10.63
2024-04-24T16:26:10.240Z,10.76
2024-04-24T16:28:37.115Z,10.61
2024-04-24T16:31:04.148Z,10.55
2024-04-24T16:33:31.175Z,10.70
2024-04-24T16:35:59.987Z,10.50
2024-04-24T16:38:26.985Z,10.80
2024-04-24T16:40:56.931Z,10.73
2024-04-24T16:43:24.125Z,10.92
2024-04-24T16:45:51.167Z,10.87
2024-04-24T16:48:19.689Z,10.79
2024-04-24T16:50:46.965Z,10.80
2024-04-24T16:53:13.865Z,10.69
2024-04-24T16:55:40.834Z,10.62
2024-04-24T16:58:08.431Z,10.76
2024-04-24T17:00:35.330Z,10.66
2024-04-24T17:03:02.323Z,10.80
2024-04-24T17:05:29.556Z,10.69
2024-04-24T17:07:56.561Z,10.90
2024-04-24T17:10:23.642Z,10.78
2024-04-24T17:12:50.599Z,10.79
2024-04-24T17:15:17.488Z,10.80
2024-04-24T17:17:44.542Z,10.79
2024-04-24T17:20:11.829Z,10.00
2024-04-24T17:22:38.782Z,10.20
2024-04-24T17:25:06.482Z,9.97
2024-04-24T17:27:33.538Z,9.71
2024-04-24T17:30:00.759Z,9.74
2024-04-24T17:32:27.755Z,9.90
2024-04-24T17:34:54.821Z,9.95
2024-04-24T17:37:21.772Z,9.62
2024-04-24T17:39:48.708Z,9.44
2024-04-24T17:42:15.662Z,9.60
2024-04-24T17:44:42.825Z,9.99
2024-04-24T17:47:11.774Z,9.48
2024-04-24T17:49:39.233Z,9.52
2024-04-24T17:52:06.295Z,9.82
2024-04-24T17:54:35.306Z,10.03
2024-04-24T17:57:02.326Z,10.14
2024-04-24T17:59:29.588Z,10.07
2024-04-24T18:01:56.610Z,10.14
2024-04-24T18:04:24.360Z,10.08
2024-04-24T18:06:51.242Z,9.96
2024-04-24T18:09:18.394Z,9.90
2024-04-24T18:11:45.405Z,9.93
2024-04-24T18:14:12.352Z,9.89
2024-04-24T18:16:39.338Z,10.06
2024-04-24T18:19:06.275Z,10.17
2024-04-24T18:21:33.146Z,10.16
2024-04-24T18:24:00.012Z,10.02
2024-04-24T18:26:27.198Z,9.92
2024-04-24T18:28:54.162Z,10.04
2024-04-24T18:31:21.008Z,9.90
2024-04-24T18:33:47.898Z,9.73
2024-04-24T18:36:14.805Z,9.47
2024-04-24T18:38:42.812Z,9.55
2024-04-24T18:41:12.560Z,9.56
2024-04-24T18:43:42.818Z,9.41
2024-04-24T18:46:09.801Z,9.32
2024-04-24T18:48:36.655Z,9.38
2024-04-24T18:51:06.521Z,9.38
2024-04-24T18:53:33.975Z,9.18
2024-04-24T18:56:05.516Z,9.27
2024-04-24T18:58:34.410Z,8.81
2024-04-24T19:01:02.087Z,9.17
2024-04-24T19:03:29.286Z,9.24
2024-04-24T19:05:56.275Z,9.31
2024-04-24T19:08:23.919Z,9.01
2024-04-24T19:10:50.828Z,9.18
2024-04-24T19:13:19.105Z,9.56
2024-04-24T19:15:46.081Z,9.33
2024-04-24T19:18:13.389Z,9.18
2024-04-24T19:20:42.543Z,9.05
2024-04-24T19:23:10.667Z,8.67
2024-04-24T19:25:37.671Z,8.72
2024-04-24T19:28:05.002Z,8.47
2024-04-24T19:30:31.923Z,8.64
2024-04-24T19:32:59.301Z,8.52
2024-04-24T19:35:27.293Z,8.55
2024-04-24T19:37:55.305Z,8.54
2024-04-24T19:40:23.575Z,8.21
2024-04-24T19:42:50.681Z,8.38
2024-04-24T19:45:17.685Z,8.33
2024-04-24T19:47:44.876Z,8.51
2024-04-24T19:50:11.950Z,8.57
2024-04-24T19:52:38.903Z,8.59
2024-04-24T19:55:07.229Z,8.50
2024-04-24T19:57:34.198Z,8.51
2024-04-24T20:00:01.486Z,8.66
2024-04-24T20:02:31.563Z,8.59
2024-04-24T20:04:58.454Z,8.40
2024-04-24T20:07:25.301Z,8.44
2024-04-24T20:09:52.315Z,8.41
2024-04-24T20:12:19.192Z,8.22
2024-04-24T20:14:46.230Z,8.38
2024-04-24T20:17:14.774Z,8.39
2024-04-24T20:19:43.047Z,8.45
2024-04-24T20:22:09.892Z,8.49
2024-04-24T20:24:36.852Z,8.62
2024-04-24T20:27:03.991Z,8.65
2024-04-24T20:29:33.329Z,8.57
2024-04-24T20:32:01.568Z,8.38
2024-04-24T20:34:28.577Z,8.51
2024-04-24T20:36:56.345Z,8.49
2024-04-24T20:39:23.223Z,8.46
2024-04-24T20:41:50.464Z,8.60
2024-04-24T20:44:17.337Z,8.78
2024-04-24T20:46:44.657Z,8.83
2024-04-24T20:49:11.740Z,9.05
2024-04-24T20:51:42.104Z,8.97
2024-04-24T20:54:10.196Z,8.55
2024-04-24T20:56:38.505Z,8.52
2024-04-24T20:59:08.530Z,8.59
2024-04-24T21:01:38.367Z,8.65
2024-04-24T21:04:05.707Z,8.79
2024-04-24T21:06:33.339Z,8.64
2024-04-24T21:09:02.219Z,8.61
2024-04-24T21:11:29.249Z,8.81
2024-04-24T21:13:57.973Z,8.81
2024-04-24T21:16:25.595Z,8.99
2024-04-24T21:18:52.808Z,8.91
2024-04-24T21:21:19.859Z,8.85
2024-04-24T21:23:46.809Z,8.74
2024-04-24T21:26:14.427Z,8.73
2024-04-24T21:28:41.234Z,8.44
2024-04-24T21:31:08.092Z,8.33
2024-04-24T21:33:35.879Z,8.61
2024-04-24T21:36:03.402Z,8.59
2024-04-24T21:38:34.937Z,8.56
2024-04-24T21:41:05.135Z,8.44
2024-04-24T21:43:32.324Z,8.37
2024-04-24T21:46:06.490Z,8.21
2024-04-24T21:48:33.814Z,8.31
2024-04-24T21:51:00.767Z,8.36
2024-04-24T21:53:27.738Z,8.25
2024-04-24T21:55:56.365Z,8.35
2024-04-24T21:58:24.406Z,8.20
2024-04-24T22:00:51.541Z,8.02
2024-04-24T22:03:19.564Z,8.19
2024-04-24T22:05:46.615Z,7.89
2024-04-24T22:08:13.562Z,7.74
2024-04-24T22:10:41.346Z,7.92
2024-04-24T22:13:08.143Z,8.00
2024-04-24T22:15:36.708Z,8.27
2024-04-24T22:18:05.452Z,8.15
2024-04-24T22:20:32.453Z,8.38
2024-04-24T22:22:59.317Z,8.01
2024-04-24T22:25:26.152Z,8.04
2024-04-24T22:27:53.068Z,8.07
2024-04-24T22:30:19.974Z,7.79
2024-04-24T22:32:46.856Z,7.88
2024-04-24T22:35:13.956Z,7.87
2024-04-24T22:37:40.835Z,8.02
2024-04-24T22:40:08.209Z,8.02
2024-04-24T22:42:35.073Z,8.08
2024-04-24T22:45:02.155Z,8.01
2024-04-24T22:47:31.877Z,7.95
2024-04-24T22:50:01.334Z,7.92
2024-04-24T22:52:29.086Z,8.20
2024-04-24T22:54:56.003Z,8.29
2024-04-24T22:57:23.088Z,8.19
2024-04-24T22:59:50.090Z,8.17
2024-04-24T23:02:18.111Z,8.27
2024-04-24T23:09:17.939Z,8.74
2024-04-24T23:11:44.915Z,8.58
2024-04-24T23:14:12.455Z,8.15
2024-04-24T23:16:39.341Z,8.13
2024-04-24T23:19:06.250Z,8.54
2024-04-24T23:21:33.170Z,8.50
2024-04-24T23:23:59.964Z,8.09
2024-04-24T23:26:26.898Z,8.22
2024-04-24T23:28:53.890Z,8.45
2024-04-24T23:31:20.854Z,8.13
2024-04-24T23:33:47.848Z,8.18
2024-04-24T23:36:14.688Z,8.17
2024-04-24T23:38:41.529Z,8.06
2024-04-24T23:41:08.557Z,8.11
2024-04-24T23:43:35.706Z,7.87
2024-04-24T23:46:05.334Z,8.02
2024-04-24T23:48:32.772Z,8.72
2024-04-24T23:51:00.082Z,8.34
2024-04-24T23:53:31.336Z,8.14
2024-04-24T23:55:58.416Z,7.87
2024-04-24T23:58:25.208Z,7.72
